createdAt,value
2019-06-08T00:00:45.709Z,0.50
2019-06-08T00:02:47.018Z,0.70
2019-06-08T00:04:48.390Z,0.53
2019-06-08T00:06:49.667Z,0.50
2019-06-08T00:08:51.202Z,0.70
2019-06-08T00:12:53.971Z,0.60
2019-06-08T00:14:56.258Z,0.50
2019-06-08T00:16:57.533Z,0.55
2019-06-08T00:18:58.840Z,0.50
2019-06-08T00:21:00.106Z,0.47
2019-06-08T00:23:01.369Z,0.70
2019-06-08T00:25:03.579Z,0.40
2019-06-08T00:27:05.106Z,0.72
2019-06-08T00:29:07.366Z,0.78
2019-06-08T00:31:08.631Z,0.70
2019-06-08T00:33:10.275Z,0.40
2019-06-08T00:35:11.757Z,0.70
2019-06-08T00:37:13.101Z,0.70
2019-06-08T00:39:14.686Z,0.50
2019-06-08T00:43:19.151Z,0.80
2019-06-08T00:45:21.780Z,0.47
2019-06-08T00:47:23.082Z,0.53
2019-06-08T00:49:24.733Z,0.50
2019-06-08T00:51:26.105Z,0.50
2019-06-08T00:53:27.623Z,0.57
2019-06-08T00:55:29.873Z,0.70
2019-06-08T00:57:31.299Z,0.60
2019-06-08T00:59:32.910Z,0.70
2019-06-08T01:03:35.487Z,0.60
2019-06-08T01:05:36.758Z,0.60
2019-06-08T01:07:38.033Z,0.50
2019-06-08T01:09:39.552Z,0.70
2019-06-08T01:11:40.843Z,0.70
2019-06-08T01:13:42.130Z,0.60
2019-06-08T01:15:43.401Z,0.55
2019-06-08T01:17:44.786Z,0.72
2019-06-08T01:19:46.054Z,0.50
2019-06-08T01:21:48.659Z,0.50
2019-06-08T01:25:51.090Z,0.60
2019-06-08T01:27:52.627Z,0.75
2019-06-08T01:29:54.141Z,0.50
2019-06-08T01:32:26.487Z,0.70
2019-06-08T01:34:30.946Z,0.90
2019-06-08T01:36:33.547Z,0.60
2019-06-08T01:38:34.903Z,1.00
2019-06-08T01:40:36.171Z,0.37
2019-06-08T01:42:37.461Z,0.82
2019-06-08T01:44:38.763Z,0.57
2019-06-08T01:46:40.326Z,0.50
2019-06-08T01:48:41.610Z,0.60
2019-06-08T01:50:43.131Z,0.62
2019-06-08T01:52:44.638Z,0.55
2019-06-08T01:54:46.198Z,0.50
2019-06-08T01:56:47.460Z,0.50
2019-06-08T01:58:49.010Z,0.57
2019-06-08T02:02:51.765Z,0.47
2019-06-08T02:06:54.290Z,0.62
2019-06-08T02:08:55.637Z,0.70
2019-06-08T02:10:57.268Z,0.72
2019-06-08T02:14:59.864Z,0.50
2019-06-08T02:17:01.220Z,0.42
2019-06-08T02:19:02.806Z,0.42
2019-06-08T02:21:05.237Z,0.60
2019-06-08T02:23:06.800Z,0.80
2019-06-08T02:27:09.918Z,0.55
2019-06-08T02:31:12.570Z,0.50
2019-06-08T02:33:13.889Z,0.50
2019-06-08T02:35:16.227Z,0.70
2019-06-08T02:37:17.756Z,0.80
2019-06-08T02:41:20.293Z,0.47
2019-06-08T02:43:21.583Z,0.50
2019-06-08T02:45:24.358Z,0.60
2019-06-08T02:47:25.991Z,0.50
2019-06-08T02:51:33.666Z,0.50
2019-06-08T02:53:37.804Z,0.55
2019-06-08T02:55:40.442Z,0.60
2019-06-08T02:57:42.815Z,0.75
2019-06-08T02:59:46.193Z,0.70
2019-06-08T03:01:49.369Z,0.55
2019-06-08T03:03:52.142Z,0.65
2019-06-08T03:05:57.360Z,0.80
2019-06-08T03:08:00.686Z,0.80
2019-06-08T03:10:03.691Z,0.65
2019-06-08T03:12:04.991Z,0.60
2019-06-08T03:14:06.520Z,0.78
2019-06-08T03:16:07.801Z,0.70
2019-06-08T03:18:09.394Z,0.60
2019-06-08T03:22:11.826Z,0.50
2019-06-08T03:24:13.354Z,0.70
2019-06-08T03:26:14.868Z,0.78
2019-06-08T03:28:16.130Z,0.60
2019-06-08T03:30:19.393Z,0.70
2019-06-08T03:32:21.092Z,0.72
2019-06-08T03:34:22.567Z,0.75
2019-06-08T03:36:23.830Z,0.70
2019-06-08T03:38:25.149Z,0.70
2019-06-08T03:40:26.418Z,0.98
2019-06-08T03:42:27.695Z,0.65
2019-06-08T03:44:28.977Z,0.60
2019-06-08T03:46:30.234Z,0.62
2019-06-08T03:48:31.517Z,0.65
2019-06-08T03:50:32.801Z,0.53
2019-06-08T03:52:35.386Z,0.70
2019-06-08T03:54:38.886Z,0.90
2019-06-08T03:56:40.177Z,0.70
2019-06-08T03:58:44.987Z,0.72
2019-06-08T04:00:47.109Z,0.60
2019-06-08T04:02:50.257Z,0.82
2019-06-08T04:04:51.664Z,0.60
2019-06-08T04:06:53.015Z,0.88
2019-06-08T04:08:54.323Z,0.90
2019-06-08T04:10:55.592Z,0.93
2019-06-08T04:12:56.890Z,0.60
2019-06-08T04:14:58.251Z,0.60
2019-06-08T04:16:59.770Z,0.60
2019-06-08T04:19:01.163Z,0.80
2019-06-08T04:21:02.687Z,0.57
2019-06-08T04:23:04.202Z,0.70
2019-06-08T04:25:05.929Z,0.60
2019-06-08T04:27:07.231Z,0.80
2019-06-08T04:29:08.502Z,0.70
2019-06-08T04:31:10.814Z,0.80
2019-06-08T04:33:12.347Z,0.88
2019-06-08T04:37:16.010Z,1.10
2019-06-08T04:39:17.649Z,0.70
2019-06-08T04:41:18.921Z,0.65
2019-06-08T04:43:20.253Z,0.98
2019-06-08T04:45:21.527Z,0.70
2019-06-08T04:47:22.775Z,0.70
2019-06-08T04:49:24.041Z,0.70
2019-06-08T04:51:25.329Z,0.72
2019-06-08T04:53:26.619Z,0.80
2019-06-08T04:55:28.990Z,0.70
2019-06-08T04:57:30.246Z,1.00
2019-06-08T04:59:31.548Z,0.95
2019-06-08T05:01:32.910Z,0.53
2019-06-08T05:03:34.459Z,0.72
2019-06-08T05:05:35.753Z,0.70
2019-06-08T05:07:37.022Z,0.80
2019-06-08T05:09:39.058Z,0.80
2019-06-08T05:11:41.150Z,0.70
2019-06-08T05:13:45.250Z,0.90
2019-06-08T05:15:47.403Z,0.90
2019-06-08T05:17:49.709Z,0.70
2019-06-08T05:19:51.467Z,0.90
2019-06-08T05:23:58.711Z,0.68
2019-06-08T05:25:57.697Z,0.80
2019-06-08T05:27:59.113Z,0.60
2019-06-08T05:30:08.119Z,1.10
2019-06-08T05:32:03.882Z,0.70
2019-06-08T05:34:05.405Z,0.90
2019-06-08T05:36:07.055Z,1.15
2019-06-08T05:40:10.466Z,0.93
2019-06-08T05:42:11.828Z,0.95
2019-06-08T05:44:13.401Z,1.20
2019-06-08T05:48:15.826Z,1.30
2019-06-08T05:50:19.003Z,0.98
2019-06-08T05:52:20.300Z,0.90
2019-06-08T05:54:23.734Z,0.85
2019-06-08T05:58:26.280Z,0.95
2019-06-08T06:00:27.622Z,1.20
2019-06-08T06:02:29.035Z,1.10
2019-06-08T06:04:30.321Z,1.35
2019-06-08T06:06:32.037Z,1.20
2019-06-08T06:10:34.676Z,1.00
2019-06-08T06:12:35.954Z,0.88
2019-06-08T06:14:37.213Z,1.07
2019-06-08T06:16:38.573Z,1.22
2019-06-08T06:18:40.941Z,1.10
2019-06-08T06:20:43.327Z,1.00
2019-06-08T06:22:45.851Z,1.07
2019-06-08T06:24:47.673Z,1.05
2019-06-08T06:26:49.455Z,1.05
2019-06-08T06:28:51.966Z,1.30
2019-06-08T06:30:53.374Z,1.62
2019-06-08T06:32:54.634Z,1.02
2019-06-08T06:34:55.985Z,0.90
2019-06-08T06:36:57.605Z,1.30
2019-06-08T06:38:59.262Z,0.93
2019-06-08T06:41:00.523Z,1.45
2019-06-08T06:43:01.882Z,1.20
2019-06-08T06:45:05.517Z,1.27
2019-06-08T06:47:06.785Z,1.20
2019-06-08T06:49:08.409Z,1.10
2019-06-08T06:53:11.110Z,1.52
2019-06-08T06:55:13.433Z,0.98
2019-06-08T06:57:14.789Z,1.27
2019-06-08T06:59:16.184Z,1.10
2019-06-08T07:01:17.477Z,0.80
2019-06-08T07:03:19.649Z,1.22
2019-06-08T07:05:21.171Z,1.10
2019-06-08T07:09:24.011Z,1.00
2019-06-08T07:13:26.547Z,1.00
2019-06-08T07:15:27.996Z,1.10
2019-06-08T07:17:29.263Z,1.40
2019-06-08T07:19:30.633Z,1.27
2019-06-08T07:21:41.338Z,1.22
2019-06-08T07:23:35.490Z,1.40
2019-06-08T07:25:36.875Z,0.90
2019-06-08T07:27:38.147Z,1.30
2019-06-08T07:29:39.462Z,1.27
2019-06-08T07:31:40.729Z,1.10
2019-06-08T07:33:42.080Z,1.30
2019-06-08T07:35:43.510Z,1.20
2019-06-08T07:39:50.026Z,1.40
2019-06-08T07:41:51.881Z,1.30
2019-06-08T07:43:54.524Z,1.15
2019-06-08T07:49:59.579Z,1.10
2019-06-08T07:52:09.795Z,1.22
2019-06-08T07:54:04.645Z,1.40
2019-06-08T07:58:07.098Z,0.95
2019-06-08T08:00:09.801Z,1.42
2019-06-08T08:02:11.361Z,1.70
2019-06-08T08:04:12.994Z,1.10
2019-06-08T08:08:15.758Z,1.45
2019-06-08T08:12:18.457Z,1.52
2019-06-08T08:14:20.729Z,1.55
2019-06-08T08:16:22.252Z,1.42
2019-06-08T08:20:25.114Z,1.40
2019-06-08T08:24:30.307Z,1.00
2019-06-08T08:28:38.346Z,1.12
2019-06-08T08:30:39.810Z,1.27
2019-06-08T08:32:42.275Z,0.98
2019-06-08T08:34:43.655Z,1.15
2019-06-08T08:36:45.166Z,1.52
2019-06-08T08:38:47.849Z,1.20
2019-06-08T08:40:51.153Z,1.00
2019-06-08T08:42:53.686Z,1.40
2019-06-08T08:44:58.635Z,1.07
2019-06-08T08:47:01.388Z,1.40
2019-06-08T08:49:09.390Z,1.40
2019-06-08T08:51:08.585Z,1.62
2019-06-08T08:53:10.045Z,1.20
2019-06-08T08:57:12.665Z,1.00
2019-06-08T08:59:13.934Z,1.50
2019-06-08T09:01:20.255Z,1.07
2019-06-08T09:03:28.834Z,1.50
2019-06-08T09:05:23.003Z,1.47
2019-06-08T09:07:27.923Z,1.10
2019-06-08T09:09:30.007Z,1.47
2019-06-08T09:11:31.462Z,1.50
2019-06-08T09:15:34.511Z,1.80
2019-06-08T09:17:38.572Z,1.10
2019-06-08T09:19:39.651Z,0.95
2019-06-08T09:21:41.499Z,1.25
2019-06-08T09:23:43.172Z,1.20
2019-06-08T09:25:44.790Z,1.10
2019-06-08T09:27:48.241Z,1.30
2019-06-08T09:29:49.994Z,1.30
2019-06-08T09:31:51.887Z,1.10
2019-06-08T09:34:02.607Z,1.30
2019-06-08T09:35:59.952Z,1.20
2019-06-08T09:38:03.219Z,1.12
2019-06-08T09:40:04.272Z,1.20
2019-06-08T09:42:05.734Z,1.42
2019-06-08T09:44:08.687Z,1.37
2019-06-08T09:46:10.387Z,1.77
2019-06-08T09:48:18.103Z,1.20
2019-06-08T09:50:23.062Z,1.37
2019-06-08T09:52:28.147Z,1.30
2019-06-08T09:54:29.834Z,1.12
2019-06-08T09:58:32.669Z,1.20
2019-06-08T10:00:34.310Z,0.93
2019-06-08T10:02:35.653Z,1.27
2019-06-08T10:04:38.857Z,1.10
2019-06-08T10:06:41.244Z,1.45
2019-06-08T10:08:42.595Z,1.47
2019-06-08T10:10:44.005Z,1.20
2019-06-08T10:12:48.171Z,1.27
2019-06-08T10:14:49.310Z,1.50
2019-06-08T10:16:50.908Z,1.15
2019-06-08T10:18:55.000Z,1.82
2019-06-08T10:20:59.619Z,1.30
2019-06-08T10:23:03.182Z,1.10
2019-06-08T10:25:10.318Z,1.27
2019-06-08T10:27:11.633Z,1.00
2019-06-08T10:29:13.914Z,1.40
2019-06-08T10:31:17.581Z,1.25
2019-06-08T10:33:18.993Z,1.55
2019-06-08T10:35:20.994Z,1.75
2019-06-08T10:37:22.632Z,1.25
2019-06-08T10:39:24.007Z,1.77
2019-06-08T10:41:27.815Z,1.10
2019-06-08T10:43:31.500Z,1.22
2019-06-08T10:47:37.848Z,1.47
2019-06-08T10:49:41.274Z,1.80
2019-06-08T10:51:43.739Z,1.30
2019-06-08T10:53:51.914Z,1.22
2019-06-08T10:55:48.345Z,1.20
2019-06-08T10:57:49.529Z,1.52
2019-06-08T10:59:52.966Z,1.00
2019-06-08T11:01:54.141Z,1.35
2019-06-08T11:03:58.054Z,1.52
2019-06-08T11:06:01.306Z,1.65
2019-06-08T11:08:04.486Z,1.32
2019-06-08T11:10:11.629Z,1.27
2019-06-08T11:12:15.065Z,0.93
2019-06-08T11:14:18.185Z,1.55
2019-06-08T11:16:19.104Z,1.57
2019-06-08T11:18:23.323Z,1.25
2019-06-08T11:20:27.565Z,1.30
2019-06-08T11:22:29.709Z,1.50
2019-06-08T11:24:32.946Z,1.20
2019-06-08T11:26:39.995Z,1.40
2019-06-08T11:28:41.822Z,1.50
2019-06-08T11:32:45.153Z,1.20
2019-06-08T11:36:51.516Z,2.08
2019-06-08T11:38:53.257Z,2.17
2019-06-08T11:40:57.446Z,1.30
2019-06-08T11:42:58.632Z,1.20
2019-06-08T11:45:00.479Z,1.30
2019-06-08T11:51:10.686Z,1.30
2019-06-08T11:53:14.436Z,1.50
2019-06-08T11:55:14.091Z,1.42
2019-06-08T11:57:17.533Z,1.20
2019-06-08T11:59:19.114Z,1.32
2019-06-08T12:01:20.419Z,1.32
2019-06-08T12:03:22.978Z,1.30
2019-06-08T12:07:29.968Z,1.50
2019-06-08T12:09:29.376Z,1.40
2019-06-08T12:11:31.043Z,1.32
2019-06-08T12:15:33.566Z,1.15
2019-06-08T12:17:35.169Z,1.35
2019-06-08T12:21:39.620Z,1.57
2019-06-08T12:23:40.927Z,1.50
2019-06-08T12:25:42.221Z,1.32
2019-06-08T12:27:44.027Z,1.50
2019-06-08T12:29:45.651Z,1.55
2019-06-08T12:31:47.401Z,1.30
2019-06-08T12:33:48.879Z,1.22
2019-06-08T12:37:51.713Z,1.55
2019-06-08T12:41:54.149Z,1.47
2019-06-08T12:43:55.420Z,1.72
2019-06-08T12:45:58.114Z,1.70
2019-06-08T12:47:59.486Z,1.32
2019-06-08T12:50:00.755Z,1.52
2019-06-08T12:52:02.100Z,1.42
2019-06-08T12:54:05.001Z,1.50
2019-06-08T12:56:09.022Z,1.42
2019-06-08T12:58:11.263Z,1.45
2019-06-08T13:00:13.370Z,1.65
2019-06-08T13:02:19.091Z,1.98
2019-06-08T13:04:21.329Z,1.50
2019-06-08T13:06:21.319Z,1.07
2019-06-08T13:08:22.926Z,1.40
2019-06-08T13:12:25.789Z,1.00
2019-06-08T13:14:28.400Z,1.42
2019-06-08T13:16:30.241Z,1.50
2019-06-08T13:18:31.618Z,1.67
2019-06-08T13:20:33.262Z,1.45
2019-06-08T13:22:34.548Z,1.37
2019-06-08T13:24:37.647Z,1.20
2019-06-08T13:26:39.093Z,1.27
2019-06-08T13:28:40.428Z,1.70
2019-06-08T13:30:41.848Z,1.30
2019-06-08T13:32:43.383Z,1.65
2019-06-08T13:36:48.374Z,1.30
2019-06-08T13:38:49.346Z,1.35
2019-06-08T13:40:50.625Z,1.20
2019-06-08T13:42:51.922Z,1.32
2019-06-08T13:44:53.741Z,1.35
2019-06-08T13:46:57.625Z,1.17
2019-06-08T13:48:58.746Z,1.52
2019-06-08T13:51:00.074Z,1.02
2019-06-08T13:53:01.624Z,1.35
2019-06-08T13:57:08.496Z,1.37
2019-06-08T13:59:10.076Z,1.12
2019-06-08T14:01:11.482Z,1.35
2019-06-08T14:03:13.650Z,1.37
2019-06-08T14:05:23.970Z,1.27
2019-06-08T14:07:25.759Z,1.50
2019-06-08T14:09:28.531Z,1.32
2019-06-08T14:11:29.138Z,1.20
2019-06-08T14:13:34.139Z,1.10
2019-06-08T14:15:34.389Z,1.37
2019-06-08T14:17:37.870Z,1.20
2019-06-08T14:19:39.109Z,7.10
2019-06-08T14:21:41.902Z,2.05
2019-06-08T14:23:43.362Z,2.83
2019-06-08T14:25:53.708Z,1.75
2019-06-08T14:27:48.240Z,1.87
2019-06-08T14:29:51.350Z,1.60
2019-06-08T14:31:53.170Z,1.80
2019-06-08T14:33:54.450Z,1.47
2019-06-08T14:35:59.115Z,1.65
2019-06-08T14:38:00.945Z,2.00
2019-06-08T14:42:04.910Z,1.10
2019-06-08T14:44:08.164Z,1.25
2019-06-08T14:46:09.402Z,1.82
2019-06-08T14:48:11.038Z,1.60
2019-06-08T14:50:12.944Z,1.17
2019-06-08T14:52:14.446Z,1.20
2019-06-08T14:56:25.092Z,4.53
2019-06-08T14:58:29.338Z,2.05
2019-06-08T15:00:29.754Z,1.62
2019-06-08T15:02:31.490Z,1.65
2019-06-08T15:04:36.455Z,1.20
2019-06-08T15:06:38.177Z,1.65
2019-06-08T15:08:39.757Z,1.40
2019-06-08T15:10:41.284Z,1.60
2019-06-08T15:14:43.705Z,1.55
2019-06-08T15:16:45.114Z,1.10
2019-06-08T15:18:46.668Z,1.40
2019-06-08T15:22:49.568Z,1.00
2019-06-08T15:24:50.904Z,0.95
2019-06-08T15:26:52.241Z,1.32
2019-06-08T15:28:53.893Z,1.20
2019-06-08T15:32:58.740Z,1.40
2019-06-08T15:34:59.918Z,1.85
2019-06-08T15:37:01.730Z,1.20
2019-06-08T15:39:07.629Z,1.37
2019-06-08T15:41:08.759Z,1.20
2019-06-08T15:43:10.145Z,1.07
2019-06-08T15:45:12.032Z,1.60
2019-06-08T15:47:13.336Z,1.00
2019-06-08T15:49:15.627Z,1.20
2019-06-08T15:51:19.801Z,1.37
2019-06-08T15:55:27.441Z,1.40
2019-06-08T15:57:31.396Z,1.40
2019-06-08T15:59:38.939Z,1.72
2019-06-08T16:01:37.342Z,1.40
2019-06-08T16:03:38.663Z,1.30
2019-06-08T16:05:39.926Z,1.62
2019-06-08T16:07:41.483Z,1.27
2019-06-08T16:11:43.966Z,1.90
2019-06-08T16:13:45.562Z,1.90
2019-06-08T16:15:46.830Z,1.60
2019-06-08T16:17:48.252Z,1.65
2019-06-08T16:19:53.038Z,1.57
2019-06-08T16:21:53.231Z,1.50
2019-06-08T16:25:55.711Z,1.40
2019-06-08T16:27:59.988Z,1.87
2019-06-08T16:30:00.406Z,1.55
2019-06-08T16:34:03.288Z,1.45
2019-06-08T16:38:05.971Z,1.70
2019-06-08T16:40:07.745Z,1.35
2019-06-08T16:42:09.014Z,1.35
2019-06-08T16:44:10.322Z,1.77
2019-06-08T16:46:11.705Z,1.50
2019-06-08T16:48:13.046Z,1.40
2019-06-08T16:50:24.247Z,1.47
2019-06-08T16:52:17.997Z,1.47
2019-06-08T16:54:19.608Z,1.32
2019-06-08T16:58:22.663Z,1.75
2019-06-08T17:02:28.528Z,1.47
2019-06-08T17:04:31.190Z,1.27
2019-06-08T17:06:33.562Z,1.40
2019-06-08T17:08:38.468Z,1.70
2019-06-08T17:10:38.726Z,1.30
2019-06-08T17:12:40.402Z,1.47
2019-06-08T17:16:42.892Z,1.17
2019-06-08T17:18:44.423Z,1.32
2019-06-08T17:22:47.104Z,1.20
2019-06-08T17:24:49.633Z,1.30
2019-06-08T17:28:52.538Z,1.52
2019-06-08T17:30:53.902Z,1.27
2019-06-08T17:32:55.514Z,1.40
2019-06-08T17:34:56.825Z,1.30
2019-06-08T17:36:58.178Z,1.27
2019-06-08T17:38:59.463Z,1.25
2019-06-08T17:41:00.857Z,1.17
2019-06-08T17:43:02.130Z,1.22
2019-06-08T17:45:05.506Z,1.25
2019-06-08T17:47:06.777Z,1.00
2019-06-08T17:49:08.210Z,1.02
2019-06-08T17:51:09.471Z,0.78
2019-06-08T17:53:10.793Z,0.60
2019-06-08T17:55:12.076Z,0.80
2019-06-08T17:57:13.331Z,1.00
2019-06-08T17:59:14.601Z,0.80
2019-06-08T18:01:16.156Z,0.80
2019-06-08T18:05:20.034Z,0.78
2019-06-08T18:07:21.546Z,0.90
2019-06-08T18:09:22.927Z,0.80
2019-06-08T18:11:24.485Z,0.70
2019-06-08T18:13:27.284Z,1.00
2019-06-08T18:15:28.784Z,1.15
2019-06-08T18:17:30.061Z,1.20
2019-06-08T18:19:31.615Z,1.30
2019-06-08T18:23:34.689Z,1.02
2019-06-08T18:25:38.755Z,1.80
2019-06-08T18:27:40.837Z,1.60
2019-06-08T18:29:42.943Z,1.67
2019-06-08T18:31:47.986Z,1.20
2019-06-08T18:33:50.481Z,1.30
2019-06-08T18:35:51.898Z,1.30
2019-06-08T18:37:53.165Z,1.57
2019-06-08T18:39:54.461Z,1.90
2019-06-08T18:41:58.845Z,1.30
2019-06-08T18:43:59.288Z,1.40
2019-06-08T18:46:02.045Z,1.47
2019-06-08T18:50:08.653Z,1.52
2019-06-08T18:52:10.351Z,1.30
2019-06-08T18:54:14.827Z,1.47
2019-06-08T18:56:17.783Z,1.60
2019-06-08T18:58:24.664Z,1.80
2019-06-08T19:00:33.286Z,1.27
2019-06-08T19:02:34.642Z,2.05
2019-06-08T19:04:37.810Z,1.37
2019-06-08T19:06:40.904Z,1.50
2019-06-08T19:08:44.876Z,1.20
2019-06-08T19:10:48.425Z,1.80
2019-06-08T19:12:50.717Z,1.50
2019-06-08T19:14:53.325Z,1.47
2019-06-08T19:16:55.023Z,1.35
2019-06-08T19:18:58.095Z,1.45
2019-06-08T19:20:59.544Z,1.30
2019-06-08T19:23:00.943Z,1.37
2019-06-08T19:25:03.906Z,1.35
2019-06-08T19:27:07.693Z,1.20
2019-06-08T19:29:08.336Z,1.40
2019-06-08T19:31:10.275Z,1.37
2019-06-08T19:33:12.236Z,1.42
2019-06-08T19:37:17.131Z,1.42
2019-06-08T19:39:19.171Z,1.45
2019-06-08T19:41:20.449Z,1.20
2019-06-08T19:43:21.982Z,1.27
2019-06-08T19:45:23.255Z,1.40
2019-06-08T19:47:27.055Z,1.62
2019-06-08T19:49:28.305Z,1.42
2019-06-08T19:51:30.809Z,1.72
2019-06-08T19:53:32.389Z,1.52
2019-06-08T19:55:33.668Z,1.40
2019-06-08T19:57:34.966Z,1.27
2019-06-08T19:59:38.279Z,1.20
2019-06-08T20:01:39.572Z,1.35
2019-06-08T20:03:41.121Z,1.40
2019-06-08T20:05:42.892Z,1.67
2019-06-08T20:07:44.948Z,1.55
2019-06-08T20:09:48.199Z,1.50
2019-06-08T20:11:55.507Z,1.40
2019-06-08T20:13:53.665Z,1.60
2019-06-08T20:15:59.581Z,1.20
2019-06-08T20:17:58.501Z,1.72
2019-06-08T20:20:00.018Z,1.50
2019-06-08T20:22:01.333Z,1.77
2019-06-08T20:24:02.698Z,1.47
2019-06-08T20:26:03.970Z,1.45
2019-06-08T20:28:07.767Z,1.60
2019-06-08T20:30:12.128Z,1.70
2019-06-08T20:32:11.866Z,1.57
2019-06-08T20:34:13.402Z,1.42
2019-06-08T20:36:14.752Z,1.62
2019-06-08T20:38:17.713Z,1.57
2019-06-08T20:40:19.189Z,1.52
2019-06-08T20:42:20.457Z,1.60
2019-06-08T20:44:21.799Z,1.87
2019-06-08T20:46:23.111Z,1.95
2019-06-08T20:48:27.368Z,1.40
2019-06-08T20:50:28.070Z,2.22
2019-06-08T20:52:29.338Z,1.62
2019-06-08T20:54:30.656Z,1.82
2019-06-08T20:56:31.981Z,1.72
2019-06-08T20:58:33.327Z,1.67
2019-06-08T21:00:34.606Z,2.00
2019-06-08T21:02:37.189Z,1.90
2019-06-08T21:04:38.590Z,2.10
2019-06-08T21:06:40.121Z,1.98
2019-06-08T21:10:42.789Z,2.17
2019-06-08T21:12:49.562Z,2.00
2019-06-08T21:14:50.817Z,1.70
2019-06-08T21:16:53.324Z,1.98
2019-06-08T21:18:55.024Z,2.20
2019-06-08T21:20:58.094Z,2.00
2019-06-08T21:23:00.012Z,2.00
2019-06-08T21:25:01.812Z,2.20
2019-06-08T21:27:04.422Z,1.80
2019-06-08T21:29:08.086Z,2.05
2019-06-08T21:31:08.858Z,2.10
2019-06-08T21:33:10.152Z,2.10
2019-06-08T21:35:11.695Z,1.92
2019-06-08T21:37:13.022Z,1.90
2019-06-08T21:39:14.278Z,2.12
2019-06-08T21:41:17.245Z,1.80
2019-06-08T21:43:18.914Z,2.87
2019-06-08T21:47:21.586Z,2.13
2019-06-08T21:49:22.906Z,1.98
2019-06-08T21:51:26.151Z,2.00
2019-06-08T21:53:27.647Z,2.20
2019-06-08T21:55:28.982Z,2.15
2019-06-08T21:57:30.255Z,2.05
2019-06-08T21:59:31.789Z,2.37
2019-06-08T22:01:34.597Z,2.05
2019-06-08T22:03:37.909Z,2.00
2019-06-08T22:05:39.106Z,2.10
2019-06-08T22:07:40.521Z,2.52
2019-06-08T22:09:41.892Z,2.17
2019-06-08T22:11:43.160Z,1.90
2019-06-08T22:13:44.449Z,2.12
2019-06-08T22:15:47.463Z,2.08
2019-06-08T22:17:48.978Z,2.10
2019-06-08T22:19:51.565Z,2.00
2019-06-08T22:21:53.795Z,2.40
2019-06-08T22:23:57.779Z,2.35
2019-06-08T22:26:00.765Z,2.40
2019-06-08T22:28:02.091Z,2.40
2019-06-08T22:30:10.696Z,2.20
2019-06-08T22:32:07.835Z,2.10
2019-06-08T22:36:10.630Z,2.35
2019-06-08T22:38:12.163Z,2.10
2019-06-08T22:42:14.661Z,1.87
2019-06-08T22:44:17.713Z,2.08
2019-06-08T22:46:19.340Z,1.85
2019-06-08T22:48:20.627Z,2.00
2019-06-08T22:50:22.347Z,1.90
2019-06-08T22:52:23.986Z,1.90
2019-06-08T22:56:28.289Z,2.25
2019-06-08T22:58:30.653Z,2.00
2019-06-08T23:00:31.912Z,2.00
2019-06-08T23:02:33.435Z,2.00
2019-06-08T23:04:34.701Z,2.08
2019-06-08T23:06:38.474Z,1.72
2019-06-08T23:08:39.801Z,1.95
2019-06-08T23:10:41.069Z,1.72
2019-06-08T23:12:42.621Z,1.95
2019-06-08T23:14:43.878Z,1.98
2019-06-08T23:16:47.194Z,2.00
2019-06-08T23:18:48.586Z,2.60
2019-06-08T23:20:49.842Z,4.47
2019-06-08T23:22:51.119Z,2.85
2019-06-08T23:26:53.829Z,1.80
2019-06-08T23:28:56.073Z,1.80
2019-06-08T23:31:13.061Z,1.60
2019-06-08T23:33:02.758Z,2.00
2019-06-08T23:35:07.905Z,1.72
2019-06-08T23:37:12.701Z,1.90
2019-06-08T23:39:11.955Z,2.17
2019-06-08T23:41:13.447Z,2.33
2019-06-08T23:43:14.718Z,2.05
2019-06-08T23:45:17.773Z,2.10
2019-06-08T23:47:19.102Z,1.85
2019-06-08T23:49:20.422Z,2.20
2019-06-08T23:51:21.691Z,2.00
2019-06-08T23:53:22.954Z,2.20
2019-06-08T23:55:24.222Z,2.10
2019-06-08T23:57:27.273Z,2.10
2019-06-08T23:59:28.878Z,2.10
